sensor_id;sensor_type;location;lat;lon;timestamp;P1;durP1;ratioP1;P2;durP2;ratioP2
11805;SDS011;5960;42.602;23.482;2022-12-18T00:01:52;5.18;;;4.18;;
11805;SDS011;5960;42.602;23.482;2022-12-18T00:04:20;6.45;;;4.43;;
11805;SDS011;5960;42.602;23.482;2022-12-18T00:06:49;7.43;;;4.80;;
11805;SDS011;5960;42.602;23.482;2022-12-18T00:09:16;7.25;;;4.35;;
11805;SDS011;5960;42.602;23.482;2022-12-18T00:11:43;6.88;;;4.97;;
11805;SDS011;5960;42.602;23.482;2022-12-18T00:14:11;7.30;;;4.82;;
11805;SDS011;5960;42.602;23.482;2022-12-18T00:16:39;6.32;;;3.65;;
11805;SDS011;5960;42.602;23.482;2022-12-18T00:19:09;6.30;;;4.43;;
11805;SDS011;5960;42.602;23.482;2022-12-18T00:21:37;6.60;;;4.03;;
11805;SDS011;5960;42.602;23.482;2022-12-18T00:24:06;5.05;;;3.63;;
11805;SDS011;5960;42.602;23.482;2022-12-18T00:26:33;7.97;;;4.93;;
11805;SDS011;5960;42.602;23.482;2022-12-18T00:29:02;9.23;;;5.70;;
11805;SDS011;5960;42.602;23.482;2022-12-18T00:31:32;5.95;;;4.50;;
11805;SDS011;5960;42.602;23.482;2022-12-18T00:33:59;6.72;;;4.00;;
11805;SDS011;5960;42.602;23.482;2022-12-18T00:36:28;8.32;;;5.15;;
11805;SDS011;5960;42.602;23.482;2022-12-18T00:38:56;5.45;;;4.10;;
11805;SDS011;5960;42.602;23.482;2022-12-18T00:41:25;4.72;;;3.67;;
11805;SDS011;5960;42.602;23.482;2022-12-18T00:44:09;5.15;;;3.65;;
11805;SDS011;5960;42.602;23.482;2022-12-18T00:46:39;6.20;;;4.13;;
11805;SDS011;5960;42.602;23.482;2022-12-18T00:49:07;5.30;;;3.50;;
11805;SDS011;5960;42.602;23.482;2022-12-18T00:51:33;4.78;;;3.25;;
11805;SDS011;5960;42.602;23.482;2022-12-18T00:54:00;5.93;;;4.18;;
11805;SDS011;5960;42.602;23.482;2022-12-18T00:56:27;5.10;;;3.72;;
11805;SDS011;5960;42.602;23.482;2022-12-18T00:58:54;5.82;;;4.03;;
11805;SDS011;5960;42.602;23.482;2022-12-18T01:01:20;5.63;;;3.53;;
11805;SDS011;5960;42.602;23.482;2022-12-18T01:03:48;5.68;;;4.18;;
11805;SDS011;5960;42.602;23.482;2022-12-18T01:06:16;5.75;;;3.70;;
11805;SDS011;5960;42.602;23.482;2022-12-18T01:08:43;5.82;;;3.78;;
11805;SDS011;5960;42.602;23.482;2022-12-18T01:11:10;5.88;;;3.95;;
11805;SDS011;5960;42.602;23.482;2022-12-18T01:13:38;5.53;;;3.72;;
11805;SDS011;5960;42.602;23.482;2022-12-18T01:16:05;6.70;;;3.72;;
11805;SDS011;5960;42.602;23.482;2022-12-18T01:18:32;5.32;;;4.00;;
11805;SDS011;5960;42.602;23.482;2022-12-18T01:21:00;6.38;;;3.80;;
11805;SDS011;5960;42.602;23.482;2022-12-18T01:23:28;5.28;;;4.03;;
11805;SDS011;5960;42.602;23.482;2022-12-18T01:25:54;6.18;;;4.20;;
11805;SDS011;5960;42.602;23.482;2022-12-18T01:28:21;6.25;;;4.05;;
11805;SDS011;5960;42.602;23.482;2022-12-18T01:30:48;8.05;;;4.50;;
11805;SDS011;5960;42.602;23.482;2022-12-18T01:33:14;7.00;;;4.40;;
11805;SDS011;5960;42.602;23.482;2022-12-18T01:35:41;5.90;;;4.13;;
11805;SDS011;5960;42.602;23.482;2022-12-18T01:38:09;5.03;;;4.00;;
11805;SDS011;5960;42.602;23.482;2022-12-18T01:40:36;5.70;;;3.90;;
11805;SDS011;5960;42.602;23.482;2022-12-18T01:43:03;6.40;;;4.38;;
11805;SDS011;5960;42.602;23.482;2022-12-18T01:45:30;7.20;;;4.85;;
11805;SDS011;5960;42.602;23.482;2022-12-18T01:47:57;5.93;;;4.07;;
11805;SDS011;5960;42.602;23.482;2022-12-18T01:50:28;5.63;;;3.72;;
11805;SDS011;5960;42.602;23.482;2022-12-18T01:53:00;5.65;;;3.85;;
11805;SDS011;5960;42.602;23.482;2022-12-18T01:55:32;4.63;;;3.53;;
11805;SDS011;5960;42.602;23.482;2022-12-18T01:58:04;5.50;;;3.55;;
11805;SDS011;5960;42.602;23.482;2022-12-18T02:00:31;6.00;;;4.22;;
11805;SDS011;5960;42.602;23.482;2022-12-18T02:02:58;5.85;;;3.25;;
11805;SDS011;5960;42.602;23.482;2022-12-18T02:05:28;5.13;;;3.83;;
11805;SDS011;5960;42.602;23.482;2022-12-18T02:08:05;6.35;;;3.80;;
11805;SDS011;5960;42.602;23.482;2022-12-18T02:10:40;8.05;;;4.72;;
11805;SDS011;5960;42.602;23.482;2022-12-18T02:13:14;6.50;;;4.18;;
11805;SDS011;5960;42.602;23.482;2022-12-18T02:15:48;6.40;;;3.97;;
11805;SDS011;5960;42.602;23.482;2022-12-18T02:18:22;5.20;;;4.43;;
11805;SDS011;5960;42.602;23.482;2022-12-18T02:20:55;6.40;;;4.20;;
11805;SDS011;5960;42.602;23.482;2022-12-18T02:23:33;5.35;;;3.90;;
11805;SDS011;5960;42.602;23.482;2022-12-18T02:26:12;6.05;;;4.22;;
11805;SDS011;5960;42.602;23.482;2022-12-18T02:28:45;5.65;;;3.72;;
11805;SDS011;5960;42.602;23.482;2022-12-18T02:31:16;5.95;;;4.43;;
11805;SDS011;5960;42.602;23.482;2022-12-18T02:33:47;8.07;;;4.57;;
11805;SDS011;5960;42.602;23.482;2022-12-18T02:36:16;8.57;;;4.78;;
11805;SDS011;5960;42.602;23.482;2022-12-18T02:38:45;6.45;;;4.28;;
11805;SDS011;5960;42.602;23.482;2022-12-18T02:41:14;6.18;;;4.75;;
11805;SDS011;5960;42.602;23.482;2022-12-18T02:43:46;5.20;;;3.75;;
11805;SDS011;5960;42.602;23.482;2022-12-18T02:46:23;6.00;;;3.97;;
11805;SDS011;5960;42.602;23.482;2022-12-18T02:48:53;8.00;;;5.13;;
11805;SDS011;5960;42.602;23.482;2022-12-18T02:51:29;5.88;;;3.97;;
11805;SDS011;5960;42.602;23.482;2022-12-18T02:54:01;6.75;;;4.43;;
11805;SDS011;5960;42.602;23.482;2022-12-18T02:56:38;5.78;;;4.60;;
11805;SDS011;5960;42.602;23.482;2022-12-18T02:59:12;5.60;;;3.97;;
11805;SDS011;5960;42.602;23.482;2022-12-18T03:01:46;12.05;;;4.75;;
11805;SDS011;5960;42.602;23.482;2022-12-18T03:04:19;8.63;;;5.60;;
11805;SDS011;5960;42.602;23.482;2022-12-18T03:06:53;10.63;;;4.63;;
11805;SDS011;5960;42.602;23.482;2022-12-18T03:09:24;7.30;;;4.63;;
11805;SDS011;5960;42.602;23.482;2022-12-18T03:11:58;9.75;;;4.57;;
11805;SDS011;5960;42.602;23.482;2022-12-18T03:14:47;6.53;;;4.72;;
11805;SDS011;5960;42.602;23.482;2022-12-18T03:17:15;7.35;;;4.68;;
11805;SDS011;5960;42.602;23.482;2022-12-18T03:19:45;6.90;;;4.28;;
11805;SDS011;5960;42.602;23.482;2022-12-18T03:22:13;8.00;;;4.68;;
11805;SDS011;5960;42.602;23.482;2022-12-18T03:24:42;5.82;;;4.50;;
11805;SDS011;5960;42.602;23.482;2022-12-18T03:27:13;7.20;;;4.88;;
11805;SDS011;5960;42.602;23.482;2022-12-18T03:29:44;7.43;;;5.00;;
11805;SDS011;5960;42.602;23.482;2022-12-18T03:32:15;10.57;;;5.88;;
11805;SDS011;5960;42.602;23.482;2022-12-18T03:34:47;6.30;;;4.45;;
11805;SDS011;5960;42.602;23.482;2022-12-18T03:37:17;7.65;;;4.25;;
11805;SDS011;5960;42.602;23.482;2022-12-18T03:39:43;6.65;;;3.80;;
11805;SDS011;5960;42.602;23.482;2022-12-18T03:42:11;7.15;;;4.95;;
11805;SDS011;5960;42.602;23.482;2022-12-18T03:44:44;6.22;;;4.20;;
11805;SDS011;5960;42.602;23.482;2022-12-18T03:47:19;7.40;;;4.40;;
11805;SDS011;5960;42.602;23.482;2022-12-18T03:49:55;5.85;;;4.25;;
11805;SDS011;5960;42.602;23.482;2022-12-18T03:52:26;7.25;;;4.68;;
11805;SDS011;5960;42.602;23.482;2022-12-18T03:54:56;6.43;;;4.32;;
11805;SDS011;5960;42.602;23.482;2022-12-18T03:57:28;6.20;;;4.63;;
11805;SDS011;5960;42.602;23.482;2022-12-18T03:59:59;6.97;;;4.43;;
11805;SDS011;5960;42.602;23.482;2022-12-18T04:02:28;7.63;;;5.00;;
11805;SDS011;5960;42.602;23.482;2022-12-18T04:04:58;6.90;;;5.22;;
11805;SDS011;5960;42.602;23.482;2022-12-18T04:07:27;6.47;;;4.95;;
11805;SDS011;5960;42.602;23.482;2022-12-18T04:09:55;8.48;;;5.65;;
11805;SDS011;5960;42.602;23.482;2022-12-18T04:12:24;8.38;;;4.85;;
11805;SDS011;5960;42.602;23.482;2022-12-18T04:14:53;6.90;;;4.63;;
11805;SDS011;5960;42.602;23.482;2022-12-18T04:17:19;7.38;;;5.30;;
11805;SDS011;5960;42.602;23.482;2022-12-18T04:19:46;8.95;;;5.10;;
11805;SDS011;5960;42.602;23.482;2022-12-18T04:22:13;7.47;;;5.38;;
11805;SDS011;5960;42.602;23.482;2022-12-18T04:24:40;6.88;;;4.85;;
11805;SDS011;5960;42.602;23.482;2022-12-18T04:27:06;9.77;;;5.05;;
11805;SDS011;5960;42.602;23.482;2022-12-18T04:29:33;7.07;;;4.57;;
11805;SDS011;5960;42.602;23.482;2022-12-18T04:32:01;9.13;;;4.97;;
11805;SDS011;5960;42.602;23.482;2022-12-18T04:34:28;7.00;;;5.10;;
11805;SDS011;5960;42.602;23.482;2022-12-18T04:36:55;7.60;;;4.70;;
11805;SDS011;5960;42.602;23.482;2022-12-18T04:39:22;8.55;;;5.45;;
11805;SDS011;5960;42.602;23.482;2022-12-18T04:41:49;8.70;;;5.40;;
11805;SDS011;5960;42.602;23.482;2022-12-18T04:44:15;8.38;;;5.00;;
11805;SDS011;5960;42.602;23.482;2022-12-18T04:46:42;8.35;;;5.47;;
11805;SDS011;5960;42.602;23.482;2022-12-18T04:49:10;10.38;;;5.47;;
11805;SDS011;5960;42.602;23.482;2022-12-18T04:51:37;9.55;;;5.75;;
11805;SDS011;5960;42.602;23.482;2022-12-18T04:54:04;7.43;;;5.03;;
11805;SDS011;5960;42.602;23.482;2022-12-18T04:56:31;8.93;;;5.82;;
11805;SDS011;5960;42.602;23.482;2022-12-18T04:58:58;7.97;;;5.18;;
11805;SDS011;5960;42.602;23.482;2022-12-18T05:01:25;9.00;;;6.05;;
11805;SDS011;5960;42.602;23.482;2022-12-18T05:03:52;9.05;;;5.72;;
11805;SDS011;5960;42.602;23.482;2022-12-18T05:06:20;10.43;;;5.22;;
11805;SDS011;5960;42.602;23.482;2022-12-18T05:08:46;8.82;;;5.55;;
11805;SDS011;5960;42.602;23.482;2022-12-18T05:11:14;10.07;;;5.72;;
11805;SDS011;5960;42.602;23.482;2022-12-18T05:13:41;9.50;;;5.82;;
11805;SDS011;5960;42.602;23.482;2022-12-18T05:16:09;8.10;;;5.55;;
11805;SDS011;5960;42.602;23.482;2022-12-18T05:18:36;9.88;;;6.63;;
11805;SDS011;5960;42.602;23.482;2022-12-18T05:21:03;10.07;;;6.80;;
11805;SDS011;5960;42.602;23.482;2022-12-18T05:23:31;13.20;;;6.88;;
11805;SDS011;5960;42.602;23.482;2022-12-18T05:26:02;9.88;;;6.60;;
11805;SDS011;5960;42.602;23.482;2022-12-18T05:28:31;9.13;;;5.40;;
11805;SDS011;5960;42.602;23.482;2022-12-18T05:31:00;11.32;;;7.13;;
11805;SDS011;5960;42.602;23.482;2022-12-18T05:33:29;9.60;;;6.30;;
11805;SDS011;5960;42.602;23.482;2022-12-18T05:35:57;11.15;;;6.60;;
11805;SDS011;5960;42.602;23.482;2022-12-18T05:38:25;9.18;;;5.57;;
11805;SDS011;5960;42.602;23.482;2022-12-18T05:40:54;11.45;;;7.18;;
11805;SDS011;5960;42.602;23.482;2022-12-18T05:43:22;13.13;;;7.78;;
11805;SDS011;5960;42.602;23.482;2022-12-18T05:45:50;11.13;;;7.35;;
11805;SDS011;5960;42.602;23.482;2022-12-18T05:48:18;11.63;;;7.18;;
11805;SDS011;5960;42.602;23.482;2022-12-18T05:50:46;11.88;;;7.50;;
11805;SDS011;5960;42.602;23.482;2022-12-18T05:53:14;15.02;;;7.70;;
11805;SDS011;5960;42.602;23.482;2022-12-18T05:55:42;13.48;;;7.97;;
11805;SDS011;5960;42.602;23.482;2022-12-18T05:58:12;12.00;;;7.10;;
11805;SDS011;5960;42.602;23.482;2022-12-18T06:00:44;12.95;;;7.65;;
11805;SDS011;5960;42.602;23.482;2022-12-18T06:03:12;12.25;;;6.95;;
11805;SDS011;5960;42.602;23.482;2022-12-18T06:05:40;10.93;;;6.72;;
11805;SDS011;5960;42.602;23.482;2022-12-18T06:08:08;12.55;;;7.25;;
11805;SDS011;5960;42.602;23.482;2022-12-18T06:10:35;14.85;;;7.07;;
11805;SDS011;5960;42.602;23.482;2022-12-18T06:13:03;10.82;;;6.95;;
11805;SDS011;5960;42.602;23.482;2022-12-18T06:15:31;13.10;;;7.78;;
11805;SDS011;5960;42.602;23.482;2022-12-18T06:17:58;16.38;;;7.85;;
11805;SDS011;5960;42.602;23.482;2022-12-18T06:20:26;11.50;;;7.72;;
11805;SDS011;5960;42.602;23.482;2022-12-18T06:22:52;17.95;;;9.40;;
11805;SDS011;5960;42.602;23.482;2022-12-18T06:25:19;14.20;;;8.88;;
11805;SDS011;5960;42.602;23.482;2022-12-18T06:27:46;11.77;;;6.90;;
11805;SDS011;5960;42.602;23.482;2022-12-18T06:30:13;12.77;;;7.97;;
11805;SDS011;5960;42.602;23.482;2022-12-18T06:32:42;10.43;;;6.57;;
11805;SDS011;5960;42.602;23.482;2022-12-18T06:35:08;14.15;;;8.15;;
11805;SDS011;5960;42.602;23.482;2022-12-18T06:37:35;12.88;;;7.63;;
11805;SDS011;5960;42.602;23.482;2022-12-18T06:40:02;12.05;;;7.90;;
11805;SDS011;5960;42.602;23.482;2022-12-18T06:42:30;13.32;;;8.23;;
11805;SDS011;5960;42.602;23.482;2022-12-18T06:44:57;13.45;;;7.88;;
11805;SDS011;5960;42.602;23.482;2022-12-18T06:47:23;14.00;;;8.45;;
11805;SDS011;5960;42.602;23.482;2022-12-18T06:49:51;12.82;;;8.30;;
11805;SDS011;5960;42.602;23.482;2022-12-18T06:52:18;13.80;;;8.32;;
11805;SDS011;5960;42.602;23.482;2022-12-18T06:54:45;12.63;;;7.72;;
11805;SDS011;5960;42.602;23.482;2022-12-18T06:57:11;16.15;;;8.18;;
11805;SDS011;5960;42.602;23.482;2022-12-18T06:59:38;11.60;;;8.02;;
11805;SDS011;5960;42.602;23.482;2022-12-18T07:02:05;14.27;;;8.77;;
11805;SDS011;5960;42.602;23.482;2022-12-18T07:04:32;12.95;;;7.78;;
11805;SDS011;5960;42.602;23.482;2022-12-18T07:07:00;15.57;;;9.52;;
11805;SDS011;5960;42.602;23.482;2022-12-18T07:09:27;15.38;;;8.68;;
11805;SDS011;5960;42.602;23.482;2022-12-18T07:11:54;18.27;;;8.95;;
11805;SDS011;5960;42.602;23.482;2022-12-18T07:14:20;14.48;;;8.55;;
11805;SDS011;5960;42.602;23.482;2022-12-18T07:16:47;14.23;;;8.25;;
11805;SDS011;5960;42.602;23.482;2022-12-18T07:19:14;13.75;;;8.63;;
11805;SDS011;5960;42.602;23.482;2022-12-18T07:21:40;17.33;;;9.90;;
11805;SDS011;5960;42.602;23.482;2022-12-18T07:24:08;16.60;;;9.57;;
11805;SDS011;5960;42.602;23.482;2022-12-18T07:26:35;13.82;;;8.27;;
11805;SDS011;5960;42.602;23.482;2022-12-18T07:29:02;15.32;;;9.35;;
11805;SDS011;5960;42.602;23.482;2022-12-18T07:31:28;13.90;;;8.23;;
11805;SDS011;5960;42.602;23.482;2022-12-18T07:33:55;14.50;;;8.52;;
11805;SDS011;5960;42.602;23.482;2022-12-18T07:36:22;13.07;;;8.50;;
11805;SDS011;5960;42.602;23.482;2022-12-18T07:38:49;14.88;;;8.38;;
11805;SDS011;5960;42.602;23.482;2022-12-18T07:41:18;12.00;;;8.20;;
11805;SDS011;5960;42.602;23.482;2022-12-18T07:43:46;15.05;;;8.70;;
11805;SDS011;5960;42.602;23.482;2022-12-18T07:46:13;18.67;;;10.00;;
11805;SDS011;5960;42.602;23.482;2022-12-18T07:48:41;18.55;;;10.90;;
11805;SDS011;5960;42.602;23.482;2022-12-18T07:51:08;17.00;;;9.85;;
11805;SDS011;5960;42.602;23.482;2022-12-18T07:53:35;16.33;;;9.77;;
11805;SDS011;5960;42.602;23.482;2022-12-18T07:56:03;20.80;;;11.18;;
11805;SDS011;5960;42.602;23.482;2022-12-18T07:58:33;18.88;;;10.82;;
11805;SDS011;5960;42.602;23.482;2022-12-18T08:01:03;18.65;;;10.80;;
11805;SDS011;5960;42.602;23.482;2022-12-18T08:03:31;18.13;;;10.35;;
11805;SDS011;5960;42.602;23.482;2022-12-18T08:05:59;15.23;;;9.57;;
11805;SDS011;5960;42.602;23.482;2022-12-18T08:08:26;16.08;;;10.20;;
11805;SDS011;5960;42.602;23.482;2022-12-18T08:10:53;17.05;;;9.95;;
11805;SDS011;5960;42.602;23.482;2022-12-18T08:13:19;16.55;;;10.75;;
11805;SDS011;5960;42.602;23.482;2022-12-18T08:15:48;15.80;;;9.30;;
11805;SDS011;5960;42.602;23.482;2022-12-18T08:18:22;15.10;;;9.20;;
11805;SDS011;5960;42.602;23.482;2022-12-18T08:20:49;34.53;;;19.38;;
11805;SDS011;5960;42.602;23.482;2022-12-18T08:23:15;28.85;;;16.75;;
11805;SDS011;5960;42.602;23.482;2022-12-18T08:25:42;127.15;;;63.85;;
11805;SDS011;5960;42.602;23.482;2022-12-18T08:28:09;43.80;;;24.48;;
11805;SDS011;5960;42.602;23.482;2022-12-18T08:30:36;72.13;;;34.08;;
11805;SDS011;5960;42.602;23.482;2022-12-18T08:33:04;16.60;;;10.48;;
11805;SDS011;5960;42.602;23.482;2022-12-18T08:35:34;23.65;;;14.98;;
11805;SDS011;5960;42.602;23.482;2022-12-18T08:38:01;31.15;;;18.95;;
11805;SDS011;5960;42.602;23.482;2022-12-18T08:40:27;24.55;;;14.25;;
11805;SDS011;5960;42.602;23.482;2022-12-18T08:42:54;20.55;;;13.63;;
11805;SDS011;5960;42.602;23.482;2022-12-18T08:45:38;32.63;;;19.50;;
11805;SDS011;5960;42.602;23.482;2022-12-18T08:48:06;23.75;;;11.85;;
11805;SDS011;5960;42.602;23.482;2022-12-18T08:50:33;16.98;;;11.07;;
11805;SDS011;5960;42.602;23.482;2022-12-18T08:53:00;18.15;;;10.52;;
11805;SDS011;5960;42.602;23.482;2022-12-18T08:55:27;17.15;;;10.13;;
11805;SDS011;5960;42.602;23.482;2022-12-18T08:57:54;17.65;;;11.55;;
11805;SDS011;5960;42.602;23.482;2022-12-18T09:00:20;29.33;;;16.58;;
11805;SDS011;5960;42.602;23.482;2022-12-18T09:02:47;20.83;;;11.70;;
11805;SDS011;5960;42.602;23.482;2022-12-18T09:05:16;21.75;;;11.77;;
11805;SDS011;5960;42.602;23.482;2022-12-18T09:07:42;18.88;;;10.80;;
11805;SDS011;5960;42.602;23.482;2022-12-18T09:10:09;18.75;;;11.25;;
11805;SDS011;5960;42.602;23.482;2022-12-18T09:12:36;43.30;;;24.23;;
11805;SDS011;5960;42.602;23.482;2022-12-18T09:15:03;35.13;;;19.63;;
11805;SDS011;5960;42.602;23.482;2022-12-18T09:17:30;66.78;;;33.22;;
11805;SDS011;5960;42.602;23.482;2022-12-18T09:19:56;28.02;;;15.35;;
11805;SDS011;5960;42.602;23.482;2022-12-18T09:22:25;54.97;;;36.25;;
11805;SDS011;5960;42.602;23.482;2022-12-18T09:24:52;20.60;;;12.30;;
11805;SDS011;5960;42.602;23.482;2022-12-18T09:27:19;22.42;;;12.63;;
11805;SDS011;5960;42.602;23.482;2022-12-18T09:29:45;21.75;;;13.27;;
11805;SDS011;5960;42.602;23.482;2022-12-18T09:32:12;22.42;;;11.57;;
11805;SDS011;5960;42.602;23.482;2022-12-18T09:34:39;27.02;;;14.13;;
11805;SDS011;5960;42.602;23.482;2022-12-18T09:37:06;21.02;;;13.52;;
11805;SDS011;5960;42.602;23.482;2022-12-18T09:39:34;24.55;;;15.32;;
11805;SDS011;5960;42.602;23.482;2022-12-18T09:42:02;38.90;;;22.63;;
11805;SDS011;5960;42.602;23.482;2022-12-18T09:44:30;28.75;;;15.18;;
11805;SDS011;5960;42.602;23.482;2022-12-18T09:47:07;24.85;;;13.35;;
11805;SDS011;5960;42.602;23.482;2022-12-18T09:49:38;45.55;;;25.08;;
11805;SDS011;5960;42.602;23.482;2022-12-18T09:52:15;69.47;;;31.55;;
11805;SDS011;5960;42.602;23.482;2022-12-18T09:54:48;53.03;;;22.88;;
11805;SDS011;5960;42.602;23.482;2022-12-18T09:57:19;59.00;;;30.48;;
11805;SDS011;5960;42.602;23.482;2022-12-18T09:59:50;41.95;;;22.02;;
11805;SDS011;5960;42.602;23.482;2022-12-18T10:02:21;42.03;;;19.58;;
11805;SDS011;5960;42.602;23.482;2022-12-18T10:04:54;45.08;;;23.83;;
11805;SDS011;5960;42.602;23.482;2022-12-18T10:07:32;117.97;;;42.35;;
11805;SDS011;5960;42.602;23.482;2022-12-18T10:10:12;59.50;;;25.30;;
11805;SDS011;5960;42.602;23.482;2022-12-18T10:12:49;62.50;;;25.00;;
11805;SDS011;5960;42.602;23.482;2022-12-18T10:15:22;51.35;;;20.55;;
11805;SDS011;5960;42.602;23.482;2022-12-18T10:17:54;79.05;;;31.42;;
11805;SDS011;5960;42.602;23.482;2022-12-18T10:20:29;54.28;;;28.30;;
11805;SDS011;5960;42.602;23.482;2022-12-18T10:23:03;59.92;;;30.00;;
11805;SDS011;5960;42.602;23.482;2022-12-18T10:25:40;31.92;;;18.85;;
11805;SDS011;5960;42.602;23.482;2022-12-18T10:28:20;40.65;;;20.75;;
11805;SDS011;5960;42.602;23.482;2022-12-18T10:30:47;64.80;;;31.45;;
11805;SDS011;5960;42.602;23.482;2022-12-18T10:33:16;52.30;;;23.38;;
11805;SDS011;5960;42.602;23.482;2022-12-18T10:35:44;64.13;;;27.02;;
11805;SDS011;5960;42.602;23.482;2022-12-18T10:38:23;32.88;;;15.65;;
11805;SDS011;5960;42.602;23.482;2022-12-18T10:40:54;56.63;;;25.27;;
11805;SDS011;5960;42.602;23.482;2022-12-18T10:43:23;31.20;;;16.98;;
11805;SDS011;5960;42.602;23.482;2022-12-18T10:48:48;28.45;;;16.58;;
11805;SDS011;5960;42.602;23.482;2022-12-18T10:51:21;19.25;;;13.10;;
11805;SDS011;5960;42.602;23.482;2022-12-18T10:53:51;24.52;;;13.63;;
11805;SDS011;5960;42.602;23.482;2022-12-18T10:56:23;24.30;;;13.45;;
11805;SDS011;5960;42.602;23.482;2022-12-18T10:58:55;28.05;;;16.52;;
11805;SDS011;5960;42.602;23.482;2022-12-18T11:01:25;33.65;;;17.27;;
11805;SDS011;5960;42.602;23.482;2022-12-18T11:04:01;30.48;;;16.42;;
11805;SDS011;5960;42.602;23.482;2022-12-18T11:06:34;31.08;;;17.83;;
11805;SDS011;5960;42.602;23.482;2022-12-18T11:09:19;32.13;;;17.50;;
11805;SDS011;5960;42.602;23.482;2022-12-18T11:11:49;31.67;;;18.67;;
11805;SDS011;5960;42.602;23.482;2022-12-18T11:14:20;30.52;;;17.23;;
11805;SDS011;5960;42.602;23.482;2022-12-18T11:16:49;22.45;;;13.90;;
11805;SDS011;5960;42.602;23.482;2022-12-18T11:19:21;19.58;;;11.98;;
11805;SDS011;5960;42.602;23.482;2022-12-18T11:21:55;23.98;;;15.07;;
11805;SDS011;5960;42.602;23.482;2022-12-18T11:24:24;29.55;;;15.00;;
11805;SDS011;5960;42.602;23.482;2022-12-18T11:26:55;27.45;;;13.40;;
11805;SDS011;5960;42.602;23.482;2022-12-18T11:29:27;23.00;;;13.05;;
11805;SDS011;5960;42.602;23.482;2022-12-18T11:32:12;22.77;;;12.07;;
11805;SDS011;5960;42.602;23.482;2022-12-18T11:34:55;24.77;;;12.63;;
11805;SDS011;5960;42.602;23.482;2022-12-18T11:37:27;34.90;;;14.98;;
11805;SDS011;5960;42.602;23.482;2022-12-18T11:39:56;46.42;;;18.55;;
11805;SDS011;5960;42.602;23.482;2022-12-18T11:42:30;36.30;;;16.90;;
11805;SDS011;5960;42.602;23.482;2022-12-18T11:45:08;70.28;;;26.13;;
11805;SDS011;5960;42.602;23.482;2022-12-18T11:47:49;133.05;;;47.40;;
11805;SDS011;5960;42.602;23.482;2022-12-18T11:50:23;219.45;;;64.53;;
11805;SDS011;5960;42.602;23.482;2022-12-18T11:52:52;167.95;;;57.78;;
11805;SDS011;5960;42.602;23.482;2022-12-18T11:55:21;111.93;;;39.78;;
11805;SDS011;5960;42.602;23.482;2022-12-18T11:57:57;115.88;;;37.50;;
11805;SDS011;5960;42.602;23.482;2022-12-18T12:00:30;205.88;;;61.85;;
11805;SDS011;5960;42.602;23.482;2022-12-18T12:03:03;57.65;;;26.30;;
11805;SDS011;5960;42.602;23.482;2022-12-18T12:05:45;54.60;;;23.70;;
11805;SDS011;5960;42.602;23.482;2022-12-18T12:08:23;36.90;;;16.25;;
11805;SDS011;5960;42.602;23.482;2022-12-18T12:10:58;46.50;;;19.63;;
11805;SDS011;5960;42.602;23.482;2022-12-18T12:13:37;67.97;;;24.33;;
11805;SDS011;5960;42.602;23.482;2022-12-18T12:16:11;71.30;;;26.25;;
11805;SDS011;5960;42.602;23.482;2022-12-18T12:18:47;56.63;;;26.58;;
11805;SDS011;5960;42.602;23.482;2022-12-18T12:21:26;95.43;;;35.92;;
11805;SDS011;5960;42.602;23.482;2022-12-18T12:24:04;84.47;;;40.33;;
11805;SDS011;5960;42.602;23.482;2022-12-18T12:26:44;40.47;;;21.15;;
11805;SDS011;5960;42.602;23.482;2022-12-18T12:29:26;46.60;;;20.65;;
11805;SDS011;5960;42.602;23.482;2022-12-18T12:32:07;37.55;;;19.85;;
11805;SDS011;5960;42.602;23.482;2022-12-18T12:34:51;39.08;;;19.00;;
11805;SDS011;5960;42.602;23.482;2022-12-18T12:37:26;39.28;;;17.83;;
11805;SDS011;5960;42.602;23.482;2022-12-18T12:40:03;39.35;;;18.63;;
11805;SDS011;5960;42.602;23.482;2022-12-18T12:42:31;25.17;;;13.13;;
11805;SDS011;5960;42.602;23.482;2022-12-18T12:45:25;36.38;;;20.05;;
11805;SDS011;5960;42.602;23.482;2022-12-18T12:47:56;33.35;;;16.95;;
11805;SDS011;5960;42.602;23.482;2022-12-18T12:50:25;27.98;;;15.48;;
11805;SDS011;5960;42.602;23.482;2022-12-18T12:52:52;52.05;;;25.90;;
11805;SDS011;5960;42.602;23.482;2022-12-18T12:55:22;62.03;;;30.33;;
11805;SDS011;5960;42.602;23.482;2022-12-18T12:57:55;53.33;;;31.35;;
11805;SDS011;5960;42.602;23.482;2022-12-18T13:00:29;89.40;;;47.97;;
11805;SDS011;5960;42.602;23.482;2022-12-18T13:03:01;102.45;;;41.15;;
11805;SDS011;5960;42.602;23.482;2022-12-18T13:05:38;43.38;;;19.20;;
11805;SDS011;5960;42.602;23.482;2022-12-18T13:08:09;153.50;;;67.07;;
11805;SDS011;5960;42.602;23.482;2022-12-18T13:10:37;193.38;;;80.10;;
11805;SDS011;5960;42.602;23.482;2022-12-18T13:13:06;109.15;;;49.20;;
11805;SDS011;5960;42.602;23.482;2022-12-18T13:15:37;132.00;;;57.45;;
11805;SDS011;5960;42.602;23.482;2022-12-18T13:18:13;119.75;;;54.00;;
11805;SDS011;5960;42.602;23.482;2022-12-18T13:20:43;101.45;;;47.20;;
11805;SDS011;5960;42.602;23.482;2022-12-18T13:23:31;137.63;;;53.72;;
11805;SDS011;5960;42.602;23.482;2022-12-18T13:29:00;138.85;;;53.20;;
11805;SDS011;5960;42.602;23.482;2022-12-18T13:34:34;113.15;;;43.35;;
11805;SDS011;5960;42.602;23.482;2022-12-18T13:40:01;216.73;;;73.22;;
11805;SDS011;5960;42.602;23.482;2022-12-18T13:42:34;207.90;;;67.85;;
11805;SDS011;5960;42.602;23.482;2022-12-18T13:45:37;95.18;;;36.92;;
11805;SDS011;5960;42.602;23.482;2022-12-18T13:51:00;138.40;;;45.55;;
11805;SDS011;5960;42.602;23.482;2022-12-18T13:53:30;229.77;;;66.15;;
11805;SDS011;5960;42.602;23.482;2022-12-18T13:56:02;250.75;;;90.15;;
11805;SDS011;5960;42.602;23.482;2022-12-18T13:58:30;67.15;;;31.70;;
11805;SDS011;5960;42.602;23.482;2022-12-18T14:00:56;294.60;;;90.30;;
11805;SDS011;5960;42.602;23.482;2022-12-18T14:03:25;50.97;;;20.38;;
11805;SDS011;5960;42.602;23.482;2022-12-18T14:05:54;208.10;;;71.05;;
11805;SDS011;5960;42.602;23.482;2022-12-18T14:08:26;111.05;;;42.40;;
11805;SDS011;5960;42.602;23.482;2022-12-18T14:10:58;141.13;;;49.65;;
11805;SDS011;5960;42.602;23.482;2022-12-18T14:13:26;208.85;;;69.18;;
11805;SDS011;5960;42.602;23.482;2022-12-18T14:15:55;250.40;;;88.30;;
